sensor_id;sensor_type;location;lat;lon;timestamp;P1;durP1;ratioP1;P2;durP2;ratioP2
80679;SDS011;70043;51.982;-8.514;2023-05-09T00:01:59;2.65;;;1.38;;
80679;SDS011;70043;51.982;-8.514;2023-05-09T00:04:27;2.95;;;1.30;;
80679;SDS011;70043;51.982;-8.514;2023-05-09T00:06:55;2.35;;;1.73;;
80679;SDS011;70043;51.982;-8.514;2023-05-09T00:09:23;7.45;;;1.15;;
80679;SDS011;70043;51.982;-8.514;2023-05-09T00:11:51;4.18;;;1.38;;
80679;SDS011;70043;51.982;-8.514;2023-05-09T00:14:19;2.17;;;1.15;;
80679;SDS011;70043;51.982;-8.514;2023-05-09T00:16:50;1.02;;;0.65;;
80679;SDS011;70043;51.982;-8.514;2023-05-09T00:19:18;9.65;;;1.30;;
80679;SDS011;70043;51.982;-8.514;2023-05-09T00:21:46;1.60;;;0.63;;
80679;SDS011;70043;51.982;-8.514;2023-05-09T00:24:14;5.22;;;1.58;;
80679;SDS011;70043;51.982;-8.514;2023-05-09T00:26:43;5.18;;;1.27;;
80679;SDS011;70043;51.982;-8.514;2023-05-09T00:29:13;4.97;;;1.67;;
80679;SDS011;70043;51.982;-8.514;2023-05-09T00:31:42;5.80;;;0.98;;
80679;SDS011;70043;51.982;-8.514;2023-05-09T00:34:11;3.03;;;1.30;;
80679;SDS011;70043;51.982;-8.514;2023-05-09T00:36:39;7.95;;;2.15;;
80679;SDS011;70043;51.982;-8.514;2023-05-09T00:39:08;2.67;;;1.20;;
80679;SDS011;70043;51.982;-8.514;2023-05-09T00:41:36;2.42;;;1.25;;
80679;SDS011;70043;51.982;-8.514;2023-05-09T00:44:04;4.05;;;2.42;;
80679;SDS011;70043;51.982;-8.514;2023-05-09T00:46:32;8.32;;;2.05;;
80679;SDS011;70043;51.982;-8.514;2023-05-09T00:49:00;5.43;;;1.52;;
80679;SDS011;70043;51.982;-8.514;2023-05-09T00:51:30;8.18;;;1.65;;
80679;SDS011;70043;51.982;-8.514;2023-05-09T00:53:58;8.20;;;1.98;;
80679;SDS011;70043;51.982;-8.514;2023-05-09T00:56:26;7.90;;;2.42;;
80679;SDS011;70043;51.982;-8.514;2023-05-09T00:58:54;4.88;;;1.42;;
80679;SDS011;70043;51.982;-8.514;2023-05-09T01:01:22;8.13;;;2.13;;
80679;SDS011;70043;51.982;-8.514;2023-05-09T01:03:50;8.20;;;2.40;;
80679;SDS011;70043;51.982;-8.514;2023-05-09T01:06:25;6.43;;;2.25;;
80679;SDS011;70043;51.982;-8.514;2023-05-09T01:09:00;4.63;;;1.77;;
80679;SDS011;70043;51.982;-8.514;2023-05-09T01:11:30;14.23;;;2.30;;
80679;SDS011;70043;51.982;-8.514;2023-05-09T01:14:04;4.80;;;1.98;;
80679;SDS011;70043;51.982;-8.514;2023-05-09T01:16:39;8.23;;;2.22;;
80679;SDS011;70043;51.982;-8.514;2023-05-09T01:19:16;8.73;;;2.88;;
80679;SDS011;70043;51.982;-8.514;2023-05-09T01:22:08;6.22;;;2.33;;
80679;SDS011;70043;51.982;-8.514;2023-05-09T01:24:40;8.95;;;2.20;;
80679;SDS011;70043;51.982;-8.514;2023-05-09T01:27:29;12.60;;;2.72;;
80679;SDS011;70043;51.982;-8.514;2023-05-09T01:30:06;7.43;;;2.17;;
80679;SDS011;70043;51.982;-8.514;2023-05-09T01:32:35;6.05;;;2.13;;
80679;SDS011;70043;51.982;-8.514;2023-05-09T01:35:05;5.22;;;2.05;;
80679;SDS011;70043;51.982;-8.514;2023-05-09T01:37:34;6.07;;;2.20;;
80679;SDS011;70043;51.982;-8.514;2023-05-09T01:40:06;8.60;;;1.85;;
80679;SDS011;70043;51.982;-8.514;2023-05-09T01:42:38;7.07;;;1.80;;
80679;SDS011;70043;51.982;-8.514;2023-05-09T01:45:11;9.73;;;2.00;;
80679;SDS011;70043;51.982;-8.514;2023-05-09T01:47:40;8.98;;;1.85;;
80679;SDS011;70043;51.982;-8.514;2023-05-09T01:50:10;14.38;;;2.42;;
80679;SDS011;70043;51.982;-8.514;2023-05-09T01:52:39;5.90;;;2.10;;
80679;SDS011;70043;51.982;-8.514;2023-05-09T01:55:07;5.47;;;1.58;;
80679;SDS011;70043;51.982;-8.514;2023-05-09T01:57:36;10.95;;;1.70;;
80679;SDS011;70043;51.982;-8.514;2023-05-09T02:00:06;9.75;;;1.63;;
80679;SDS011;70043;51.982;-8.514;2023-05-09T02:02:38;3.13;;;1.58;;
80679;SDS011;70043;51.982;-8.514;2023-05-09T02:05:07;8.05;;;1.77;;
80679;SDS011;70043;51.982;-8.514;2023-05-09T02:07:36;9.85;;;2.15;;
80679;SDS011;70043;51.982;-8.514;2023-05-09T02:10:04;9.23;;;2.35;;
80679;SDS011;70043;51.982;-8.514;2023-05-09T02:12:34;5.45;;;1.10;;
80679;SDS011;70043;51.982;-8.514;2023-05-09T02:15:03;6.40;;;1.48;;
80679;SDS011;70043;51.982;-8.514;2023-05-09T02:17:32;7.35;;;1.02;;
80679;SDS011;70043;51.982;-8.514;2023-05-09T02:20:03;4.75;;;1.38;;
80679;SDS011;70043;51.982;-8.514;2023-05-09T02:22:34;4.65;;;1.52;;
80679;SDS011;70043;51.982;-8.514;2023-05-09T02:25:02;1.00;;;0.52;;
80679;SDS011;70043;51.982;-8.514;2023-05-09T02:27:31;2.35;;;0.70;;
80679;SDS011;70043;51.982;-8.514;2023-05-09T02:30:02;4.05;;;1.52;;
80679;SDS011;70043;51.982;-8.514;2023-05-09T02:32:35;5.35;;;1.55;;
80679;SDS011;70043;51.982;-8.514;2023-05-09T02:35:07;3.22;;;1.58;;
80679;SDS011;70043;51.982;-8.514;2023-05-09T02:37:35;4.40;;;1.40;;
80679;SDS011;70043;51.982;-8.514;2023-05-09T02:40:05;1.40;;;0.63;;
80679;SDS011;70043;51.982;-8.514;2023-05-09T02:42:34;6.80;;;1.88;;
80679;SDS011;70043;51.982;-8.514;2023-05-09T02:45:03;2.55;;;0.77;;
80679;SDS011;70043;51.982;-8.514;2023-05-09T02:47:33;2.97;;;1.23;;
80679;SDS011;70043;51.982;-8.514;2023-05-09T02:50:02;19.13;;;1.85;;
80679;SDS011;70043;51.982;-8.514;2023-05-09T02:52:31;4.68;;;1.23;;
80679;SDS011;70043;51.982;-8.514;2023-05-09T02:54:59;3.35;;;1.13;;
80679;SDS011;70043;51.982;-8.514;2023-05-09T02:57:27;4.97;;;1.45;;
80679;SDS011;70043;51.982;-8.514;2023-05-09T02:59:57;3.97;;;1.63;;
80679;SDS011;70043;51.982;-8.514;2023-05-09T03:02:25;3.65;;;1.55;;
80679;SDS011;70043;51.982;-8.514;2023-05-09T03:04:53;12.55;;;2.25;;
80679;SDS011;70043;51.982;-8.514;2023-05-09T03:07:28;5.20;;;1.25;;
80679;SDS011;70043;51.982;-8.514;2023-05-09T03:10:05;4.72;;;1.15;;
80679;SDS011;70043;51.982;-8.514;2023-05-09T03:12:35;4.45;;;1.38;;
80679;SDS011;70043;51.982;-8.514;2023-05-09T03:15:04;3.78;;;1.60;;
80679;SDS011;70043;51.982;-8.514;2023-05-09T03:17:33;8.07;;;1.48;;
80679;SDS011;70043;51.982;-8.514;2023-05-09T03:20:00;10.13;;;2.35;;
80679;SDS011;70043;51.982;-8.514;2023-05-09T03:22:30;7.00;;;1.52;;
80679;SDS011;70043;51.982;-8.514;2023-05-09T03:24:57;3.03;;;1.10;;
80679;SDS011;70043;51.982;-8.514;2023-05-09T03:27:26;5.97;;;1.13;;
80679;SDS011;70043;51.982;-8.514;2023-05-09T03:29:55;8.52;;;1.70;;
80679;SDS011;70043;51.982;-8.514;2023-05-09T03:32:23;9.93;;;1.60;;
80679;SDS011;70043;51.982;-8.514;2023-05-09T03:34:52;1.98;;;1.10;;
80679;SDS011;70043;51.982;-8.514;2023-05-09T03:37:20;9.38;;;1.63;;
80679;SDS011;70043;51.982;-8.514;2023-05-09T03:39:49;7.18;;;1.80;;
80679;SDS011;70043;51.982;-8.514;2023-05-09T03:42:18;7.93;;;1.85;;
80679;SDS011;70043;51.982;-8.514;2023-05-09T03:44:47;1.75;;;0.73;;
80679;SDS011;70043;51.982;-8.514;2023-05-09T03:47:15;3.00;;;1.23;;
80679;SDS011;70043;51.982;-8.514;2023-05-09T03:49:43;11.15;;;2.08;;
80679;SDS011;70043;51.982;-8.514;2023-05-09T03:52:11;6.88;;;1.55;;
80679;SDS011;70043;51.982;-8.514;2023-05-09T03:54:39;3.65;;;1.27;;
80679;SDS011;70043;51.982;-8.514;2023-05-09T03:57:07;4.50;;;1.67;;
80679;SDS011;70043;51.982;-8.514;2023-05-09T03:59:35;7.47;;;1.60;;
80679;SDS011;70043;51.982;-8.514;2023-05-09T04:02:04;3.10;;;1.27;;
80679;SDS011;70043;51.982;-8.514;2023-05-09T04:04:32;2.00;;;1.20;;
80679;SDS011;70043;51.982;-8.514;2023-05-09T04:06:59;2.78;;;0.93;;
80679;SDS011;70043;51.982;-8.514;2023-05-09T04:09:27;2.42;;;0.75;;
80679;SDS011;70043;51.982;-8.514;2023-05-09T04:11:55;3.78;;;1.30;;
80679;SDS011;70043;51.982;-8.514;2023-05-09T04:14:23;5.13;;;1.52;;
80679;SDS011;70043;51.982;-8.514;2023-05-09T04:16:51;4.30;;;1.60;;
80679;SDS011;70043;51.982;-8.514;2023-05-09T04:19:21;3.95;;;1.10;;
80679;SDS011;70043;51.982;-8.514;2023-05-09T04:21:49;7.13;;;1.83;;
80679;SDS011;70043;51.982;-8.514;2023-05-09T04:24:17;7.47;;;1.65;;
80679;SDS011;70043;51.982;-8.514;2023-05-09T04:26:46;9.93;;;1.48;;
80679;SDS011;70043;51.982;-8.514;2023-05-09T04:29:14;4.18;;;0.85;;
80679;SDS011;70043;51.982;-8.514;2023-05-09T04:31:41;4.85;;;1.40;;
80679;SDS011;70043;51.982;-8.514;2023-05-09T04:34:09;4.40;;;1.60;;
80679;SDS011;70043;51.982;-8.514;2023-05-09T04:36:39;3.28;;;1.25;;
80679;SDS011;70043;51.982;-8.514;2023-05-09T04:39:07;3.60;;;1.58;;
80679;SDS011;70043;51.982;-8.514;2023-05-09T04:41:37;7.18;;;1.52;;
80679;SDS011;70043;51.982;-8.514;2023-05-09T04:44:04;8.57;;;2.50;;
80679;SDS011;70043;51.982;-8.514;2023-05-09T04:46:33;13.57;;;2.58;;
80679;SDS011;70043;51.982;-8.514;2023-05-09T04:49:00;6.35;;;2.22;;
80679;SDS011;70043;51.982;-8.514;2023-05-09T04:51:28;11.10;;;2.33;;
80679;SDS011;70043;51.982;-8.514;2023-05-09T04:53:57;7.45;;;2.33;;
80679;SDS011;70043;51.982;-8.514;2023-05-09T04:56:25;7.43;;;1.75;;
80679;SDS011;70043;51.982;-8.514;2023-05-09T04:58:53;8.90;;;1.98;;
80679;SDS011;70043;51.982;-8.514;2023-05-09T05:01:21;6.50;;;1.45;;
80679;SDS011;70043;51.982;-8.514;2023-05-09T05:03:49;1.70;;;0.55;;
80679;SDS011;70043;51.982;-8.514;2023-05-09T05:06:17;4.57;;;1.10;;
80679;SDS011;70043;51.982;-8.514;2023-05-09T05:08:44;2.60;;;1.10;;
80679;SDS011;70043;51.982;-8.514;2023-05-09T05:11:14;8.55;;;2.20;;
80679;SDS011;70043;51.982;-8.514;2023-05-09T05:13:42;6.70;;;2.33;;
80679;SDS011;70043;51.982;-8.514;2023-05-09T05:16:10;4.10;;;1.77;;
80679;SDS011;70043;51.982;-8.514;2023-05-09T05:18:37;3.50;;;1.70;;
80679;SDS011;70043;51.982;-8.514;2023-05-09T05:21:05;5.32;;;1.35;;
80679;SDS011;70043;51.982;-8.514;2023-05-09T05:23:34;2.50;;;1.90;;
80679;SDS011;70043;51.982;-8.514;2023-05-09T05:26:01;4.05;;;1.83;;
80679;SDS011;70043;51.982;-8.514;2023-05-09T05:28:31;2.47;;;1.70;;
80679;SDS011;70043;51.982;-8.514;2023-05-09T05:30:59;5.15;;;1.52;;
80679;SDS011;70043;51.982;-8.514;2023-05-09T05:33:26;3.03;;;1.63;;
80679;SDS011;70043;51.982;-8.514;2023-05-09T05:35:54;7.70;;;1.95;;
80679;SDS011;70043;51.982;-8.514;2023-05-09T05:38:22;5.05;;;1.05;;
80679;SDS011;70043;51.982;-8.514;2023-05-09T05:40:50;4.78;;;1.70;;
80679;SDS011;70043;51.982;-8.514;2023-05-09T05:43:17;9.52;;;2.30;;
80679;SDS011;70043;51.982;-8.514;2023-05-09T05:45:47;1.77;;;0.95;;
80679;SDS011;70043;51.982;-8.514;2023-05-09T05:48:15;8.63;;;1.08;;
80679;SDS011;70043;51.982;-8.514;2023-05-09T05:50:43;2.08;;;1.05;;
80679;SDS011;70043;51.982;-8.514;2023-05-09T05:53:11;2.13;;;1.05;;
80679;SDS011;70043;51.982;-8.514;2023-05-09T05:55:38;4.85;;;0.73;;
80679;SDS011;70043;51.982;-8.514;2023-05-09T05:58:06;3.90;;;0.70;;
80679;SDS011;70043;51.982;-8.514;2023-05-09T06:00:34;8.70;;;1.17;;
80679;SDS011;70043;51.982;-8.514;2023-05-09T06:03:03;3.25;;;1.45;;
80679;SDS011;70043;51.982;-8.514;2023-05-09T06:05:30;3.95;;;0.98;;
80679;SDS011;70043;51.982;-8.514;2023-05-09T06:07:58;3.40;;;1.23;;
80679;SDS011;70043;51.982;-8.514;2023-05-09T06:10:26;11.27;;;1.75;;
80679;SDS011;70043;51.982;-8.514;2023-05-09T06:12:54;9.52;;;1.83;;
80679;SDS011;70043;51.982;-8.514;2023-05-09T06:15:21;4.60;;;1.17;;
80679;SDS011;70043;51.982;-8.514;2023-05-09T06:17:49;1.65;;;1.05;;
80679;SDS011;70043;51.982;-8.514;2023-05-09T06:20:18;5.63;;;1.85;;
80679;SDS011;70043;51.982;-8.514;2023-05-09T06:22:46;5.32;;;1.50;;
80679;SDS011;70043;51.982;-8.514;2023-05-09T06:25:14;3.17;;;1.65;;
80679;SDS011;70043;51.982;-8.514;2023-05-09T06:27:42;8.85;;;1.75;;
80679;SDS011;70043;51.982;-8.514;2023-05-09T06:30:10;3.30;;;1.83;;
80679;SDS011;70043;51.982;-8.514;2023-05-09T06:32:39;5.18;;;1.40;;
80679;SDS011;70043;51.982;-8.514;2023-05-09T06:35:07;8.35;;;1.85;;
80679;SDS011;70043;51.982;-8.514;2023-05-09T06:37:36;8.02;;;1.90;;
80679;SDS011;70043;51.982;-8.514;2023-05-09T06:40:05;6.53;;;2.55;;
80679;SDS011;70043;51.982;-8.514;2023-05-09T06:42:34;18.27;;;3.78;;
80679;SDS011;70043;51.982;-8.514;2023-05-09T06:45:01;9.98;;;2.30;;
80679;SDS011;70043;51.982;-8.514;2023-05-09T06:47:30;3.50;;;1.95;;
80679;SDS011;70043;51.982;-8.514;2023-05-09T06:49:57;11.60;;;1.55;;
80679;SDS011;70043;51.982;-8.514;2023-05-09T06:52:25;6.65;;;1.98;;
80679;SDS011;70043;51.982;-8.514;2023-05-09T06:54:54;6.65;;;1.92;;
80679;SDS011;70043;51.982;-8.514;2023-05-09T06:57:22;11.98;;;2.22;;
80679;SDS011;70043;51.982;-8.514;2023-05-09T06:59:50;11.48;;;2.33;;
80679;SDS011;70043;51.982;-8.514;2023-05-09T07:02:17;11.32;;;2.13;;
80679;SDS011;70043;51.982;-8.514;2023-05-09T07:04:45;9.93;;;2.05;;
80679;SDS011;70043;51.982;-8.514;2023-05-09T07:07:13;3.35;;;1.02;;
80679;SDS011;70043;51.982;-8.514;2023-05-09T07:09:41;8.60;;;2.17;;
80679;SDS011;70043;51.982;-8.514;2023-05-09T07:12:10;6.93;;;1.70;;
80679;SDS011;70043;51.982;-8.514;2023-05-09T07:14:38;5.93;;;2.20;;
80679;SDS011;70043;51.982;-8.514;2023-05-09T07:17:07;7.53;;;2.58;;
80679;SDS011;70043;51.982;-8.514;2023-05-09T07:19:34;5.38;;;2.35;;
80679;SDS011;70043;51.982;-8.514;2023-05-09T07:22:02;11.57;;;2.78;;
80679;SDS011;70043;51.982;-8.514;2023-05-09T07:24:30;16.35;;;3.45;;
80679;SDS011;70043;51.982;-8.514;2023-05-09T07:26:58;6.18;;;2.30;;
80679;SDS011;70043;51.982;-8.514;2023-05-09T07:29:30;8.77;;;1.42;;
80679;SDS011;70043;51.982;-8.514;2023-05-09T07:31:57;5.72;;;1.30;;
80679;SDS011;70043;51.982;-8.514;2023-05-09T07:34:25;8.95;;;1.58;;
80679;SDS011;70043;51.982;-8.514;2023-05-09T07:36:53;11.27;;;2.58;;
80679;SDS011;70043;51.982;-8.514;2023-05-09T07:39:22;3.40;;;1.95;;
80679;SDS011;70043;51.982;-8.514;2023-05-09T07:41:50;10.82;;;2.40;;
80679;SDS011;70043;51.982;-8.514;2023-05-09T07:44:18;6.70;;;2.17;;
80679;SDS011;70043;51.982;-8.514;2023-05-09T07:46:47;12.52;;;3.17;;
80679;SDS011;70043;51.982;-8.514;2023-05-09T07:49:15;7.65;;;1.80;;
80679;SDS011;70043;51.982;-8.514;2023-05-09T07:51:42;10.98;;;2.22;;
80679;SDS011;70043;51.982;-8.514;2023-05-09T07:54:10;5.22;;;1.52;;
80679;SDS011;70043;51.982;-8.514;2023-05-09T07:56:38;11.18;;;1.95;;
80679;SDS011;70043;51.982;-8.514;2023-05-09T07:59:05;12.85;;;3.22;;
80679;SDS011;70043;51.982;-8.514;2023-05-09T08:01:33;18.73;;;3.97;;
80679;SDS011;70043;51.982;-8.514;2023-05-09T08:04:02;18.20;;;4.32;;
80679;SDS011;70043;51.982;-8.514;2023-05-09T08:06:33;8.80;;;2.33;;
80679;SDS011;70043;51.982;-8.514;2023-05-09T08:09:01;12.60;;;2.55;;
80679;SDS011;70043;51.982;-8.514;2023-05-09T08:11:28;14.98;;;3.38;;
80679;SDS011;70043;51.982;-8.514;2023-05-09T08:13:59;12.32;;;2.92;;
80679;SDS011;70043;51.982;-8.514;2023-05-09T08:16:26;13.85;;;4.13;;
80679;SDS011;70043;51.982;-8.514;2023-05-09T08:18:54;7.00;;;2.50;;
80679;SDS011;70043;51.982;-8.514;2023-05-09T08:21:23;19.17;;;3.55;;
80679;SDS011;70043;51.982;-8.514;2023-05-09T08:23:51;12.15;;;3.42;;
80679;SDS011;70043;51.982;-8.514;2023-05-09T08:26:19;2.17;;;1.30;;
80679;SDS011;70043;51.982;-8.514;2023-05-09T08:28:48;11.05;;;2.58;;
80679;SDS011;70043;51.982;-8.514;2023-05-09T08:31:15;12.55;;;2.85;;
80679;SDS011;70043;51.982;-8.514;2023-05-09T08:33:44;8.82;;;1.60;;
80679;SDS011;70043;51.982;-8.514;2023-05-09T08:36:12;11.18;;;2.70;;
80679;SDS011;70043;51.982;-8.514;2023-05-09T08:38:41;7.88;;;2.35;;
80679;SDS011;70043;51.982;-8.514;2023-05-09T08:41:09;13.68;;;2.20;;
80679;SDS011;70043;51.982;-8.514;2023-05-09T08:43:38;2.40;;;1.13;;
80679;SDS011;70043;51.982;-8.514;2023-05-09T08:46:07;10.45;;;1.70;;
80679;SDS011;70043;51.982;-8.514;2023-05-09T08:48:36;5.13;;;1.83;;
80679;SDS011;70043;51.982;-8.514;2023-05-09T08:51:04;3.60;;;1.25;;
80679;SDS011;70043;51.982;-8.514;2023-05-09T08:53:33;12.82;;;2.17;;
80679;SDS011;70043;51.982;-8.514;2023-05-09T08:56:03;5.82;;;1.42;;
80679;SDS011;70043;51.982;-8.514;2023-05-09T08:58:31;1.58;;;0.93;;
80679;SDS011;70043;51.982;-8.514;2023-05-09T09:01:01;10.25;;;2.33;;
80679;SDS011;70043;51.982;-8.514;2023-05-09T09:03:30;12.90;;;2.47;;
80679;SDS011;70043;51.982;-8.514;2023-05-09T09:05:59;5.97;;;2.10;;
80679;SDS011;70043;51.982;-8.514;2023-05-09T09:08:27;8.32;;;1.92;;
80679;SDS011;70043;51.982;-8.514;2023-05-09T09:10:55;8.45;;;2.53;;
80679;SDS011;70043;51.982;-8.514;2023-05-09T09:13:24;6.10;;;1.70;;
80679;SDS011;70043;51.982;-8.514;2023-05-09T09:15:52;7.05;;;2.05;;
80679;SDS011;70043;51.982;-8.514;2023-05-09T09:18:21;8.82;;;2.00;;
80679;SDS011;70043;51.982;-8.514;2023-05-09T09:21:01;10.45;;;2.10;;
80679;SDS011;70043;51.982;-8.514;2023-05-09T09:23:32;8.93;;;1.17;;
80679;SDS011;70043;51.982;-8.514;2023-05-09T09:26:00;5.85;;;1.75;;
80679;SDS011;70043;51.982;-8.514;2023-05-09T09:28:30;1.45;;;0.47;;
80679;SDS011;70043;51.982;-8.514;2023-05-09T09:30:58;6.07;;;1.50;;
80679;SDS011;70043;51.982;-8.514;2023-05-09T09:33:27;13.75;;;1.73;;
80679;SDS011;70043;51.982;-8.514;2023-05-09T09:35:55;9.55;;;1.90;;
80679;SDS011;70043;51.982;-8.514;2023-05-09T09:38:23;1.42;;;0.70;;
80679;SDS011;70043;51.982;-8.514;2023-05-09T09:40:52;7.85;;;2.30;;
80679;SDS011;70043;51.982;-8.514;2023-05-09T09:43:25;6.30;;;0.90;;
80679;SDS011;70043;51.982;-8.514;2023-05-09T09:45:55;6.90;;;1.55;;
80679;SDS011;70043;51.982;-8.514;2023-05-09T09:48:23;5.40;;;1.27;;
80679;SDS011;70043;51.982;-8.514;2023-05-09T09:50:52;8.07;;;1.25;;
80679;SDS011;70043;51.982;-8.514;2023-05-09T09:53:24;5.40;;;1.50;;
80679;SDS011;70043;51.982;-8.514;2023-05-09T09:55:55;2.83;;;1.00;;
80679;SDS011;70043;51.982;-8.514;2023-05-09T09:58:22;2.80;;;0.82;;
80679;SDS011;70043;51.982;-8.514;2023-05-09T10:01:04;4.93;;;1.25;;
80679;SDS011;70043;51.982;-8.514;2023-05-09T10:03:35;7.90;;;1.63;;
80679;SDS011;70043;51.982;-8.514;2023-05-09T10:06:04;5.30;;;1.02;;
80679;SDS011;70043;51.982;-8.514;2023-05-09T10:08:34;3.72;;;1.10;;
80679;SDS011;70043;51.982;-8.514;2023-05-09T10:11:02;5.63;;;1.63;;
80679;SDS011;70043;51.982;-8.514;2023-05-09T10:13:33;3.55;;;0.80;;
80679;SDS011;70043;51.982;-8.514;2023-05-09T10:16:01;6.13;;;1.92;;
80679;SDS011;70043;51.982;-8.514;2023-05-09T10:18:31;3.20;;;1.20;;
80679;SDS011;70043;51.982;-8.514;2023-05-09T10:21:00;1.90;;;0.55;;
80679;SDS011;70043;51.982;-8.514;2023-05-09T10:23:29;2.75;;;0.88;;
80679;SDS011;70043;51.982;-8.514;2023-05-09T10:26:00;1.17;;;0.50;;
80679;SDS011;70043;51.982;-8.514;2023-05-09T10:28:31;4.72;;;0.75;;
80679;SDS011;70043;51.982;-8.514;2023-05-09T10:31:06;2.63;;;0.65;;
80679;SDS011;70043;51.982;-8.514;2023-05-09T10:33:42;2.13;;;0.45;;
80679;SDS011;70043;51.982;-8.514;2023-05-09T10:36:14;4.10;;;0.90;;
80679;SDS011;70043;51.982;-8.514;2023-05-09T10:41:20;0.30;;;0.28;;
80679;SDS011;70043;51.982;-8.514;2023-05-09T10:44:02;3.88;;;0.47;;
80679;SDS011;70043;51.982;-8.514;2023-05-09T10:46:31;0.00;;;0.00;;
80679;SDS011;70043;51.982;-8.514;2023-05-09T10:48:59;0.90;;;0.25;;
80679;SDS011;70043;51.982;-8.514;2023-05-09T10:51:27;1.95;;;0.60;;
80679;SDS011;70043;51.982;-8.514;2023-05-09T10:53:55;0.32;;;0.15;;
80679;SDS011;70043;51.982;-8.514;2023-05-09T10:56:23;3.88;;;0.65;;
80679;SDS011;70043;51.982;-8.514;2023-05-09T10:58:52;0.45;;;0.30;;
80679;SDS011;70043;51.982;-8.514;2023-05-09T11:01:27;2.83;;;0.43;;
80679;SDS011;70043;51.982;-8.514;2023-05-09T11:03:58;0.00;;;0.00;;
80679;SDS011;70043;51.982;-8.514;2023-05-09T11:06:39;0.17;;;0.10;;
80679;SDS011;70043;51.982;-8.514;2023-05-09T11:12:07;0.82;;;0.30;;
80679;SDS011;70043;51.982;-8.514;2023-05-09T11:14:40;2.83;;;0.20;;
80679;SDS011;70043;51.982;-8.514;2023-05-09T11:17:10;6.90;;;0.55;;
80679;SDS011;70043;51.982;-8.514;2023-05-09T11:19:59;0.38;;;0.10;;
80679;SDS011;70043;51.982;-8.514;2023-05-09T11:22:30;5.28;;;0.80;;
80679;SDS011;70043;51.982;-8.514;2023-05-09T11:25:03;0.82;;;0.20;;
80679;SDS011;70043;51.982;-8.514;2023-05-09T11:27:41;6.57;;;0.50;;
80679;SDS011;70043;51.982;-8.514;2023-05-09T11:30:11;3.15;;;0.35;;
80679;SDS011;70043;51.982;-8.514;2023-05-09T11:32:42;0.75;;;0.17;;
80679;SDS011;70043;51.982;-8.514;2023-05-09T11:35:13;0.28;;;0.20;;
80679;SDS011;70043;51.982;-8.514;2023-05-09T11:37:45;0.10;;;0.10;;
80679;SDS011;70043;51.982;-8.514;2023-05-09T11:40:14;1.17;;;0.60;;
80679;SDS011;70043;51.982;-8.514;2023-05-09T11:42:43;0.43;;;0.22;;
80679;SDS011;70043;51.982;-8.514;2023-05-09T11:45:13;0.20;;;0.10;;
80679;SDS011;70043;51.982;-8.514;2023-05-09T11:47:43;0.82;;;0.20;;
80679;SDS011;70043;51.982;-8.514;2023-05-09T11:50:14;1.73;;;0.45;;
80679;SDS011;70043;51.982;-8.514;2023-05-09T11:52:43;4.50;;;0.73;;
80679;SDS011;70043;51.982;-8.514;2023-05-09T11:55:12;0.10;;;0.10;;
80679;SDS011;70043;51.982;-8.514;2023-05-09T11:57:43;0.10;;;0.10;;
80679;SDS011;70043;51.982;-8.514;2023-05-09T12:00:14;0.52;;;0.20;;
80679;SDS011;70043;51.982;-8.514;2023-05-09T12:02:42;0.43;;;0.17;;
80679;SDS011;70043;51.982;-8.514;2023-05-09T12:05:11;0.08;;;0.08;;
80679;SDS011;70043;51.982;-8.514;2023-05-09T12:07:42;0.30;;;0.10;;
80679;SDS011;70043;51.982;-8.514;2023-05-09T12:10:11;1.80;;;0.63;;
80679;SDS011;70043;51.982;-8.514;2023-05-09T12:12:41;3.03;;;0.75;;
80679;SDS011;70043;51.982;-8.514;2023-05-09T12:15:10;0.10;;;0.10;;
80679;SDS011;70043;51.982;-8.514;2023-05-09T12:17:39;0.10;;;0.10;;
80679;SDS011;70043;51.982;-8.514;2023-05-09T12:20:08;0.00;;;0.00;;
80679;SDS011;70043;51.982;-8.514;2023-05-09T12:22:40;3.65;;;0.43;;
80679;SDS011;70043;51.982;-8.514;2023-05-09T12:25:09;0.28;;;0.20;;
80679;SDS011;70043;51.982;-8.514;2023-05-09T12:27:38;0.00;;;0.00;;
80679;SDS011;70043;51.982;-8.514;2023-05-09T12:30:07;0.25;;;0.25;;
80679;SDS011;70043;51.982;-8.514;2023-05-09T12:32:39;0.63;;;0.20;;
80679;SDS011;70043;51.982;-8.514;2023-05-09T12:35:08;1.55;;;0.38;;
80679;SDS011;70043;51.982;-8.514;2023-05-09T12:37:37;0.10;;;0.10;;
80679;SDS011;70043;51.982;-8.514;2023-05-09T12:40:07;1.35;;;0.20;;
80679;SDS011;70043;51.982;-8.514;2023-05-09T12:42:42;10.35;;;0.40;;
80679;SDS011;70043;51.982;-8.514;2023-05-09T12:45:11;1.23;;;0.30;;
80679;SDS011;70043;51.982;-8.514;2023-05-09T12:47:39;1.25;;;0.45;;
80679;SDS011;70043;51.982;-8.514;2023-05-09T12:50:09;0.20;;;0.20;;
80679;SDS011;70043;51.982;-8.514;2023-05-09T12:52:38;0.05;;;0.00;;
80679;SDS011;70043;51.982;-8.514;2023-05-09T12:55:08;0.05;;;0.05;;
80679;SDS011;70043;51.982;-8.514;2023-05-09T12:57:37;0.45;;;0.13;;
80679;SDS011;70043;51.982;-8.514;2023-05-09T13:00:06;0.63;;;0.47;;
80679;SDS011;70043;51.982;-8.514;2023-05-09T13:02:36;0.05;;;0.05;;
80679;SDS011;70043;51.982;-8.514;2023-05-09T13:05:08;0.82;;;0.20;;
80679;SDS011;70043;51.982;-8.514;2023-05-09T13:07:41;0.32;;;0.10;;
80679;SDS011;70043;51.982;-8.514;2023-05-09T13:10:10;1.65;;;0.30;;
80679;SDS011;70043;51.982;-8.514;2023-05-09T13:12:40;0.30;;;0.10;;
80679;SDS011;70043;51.982;-8.514;2023-05-09T13:15:13;1.15;;;0.10;;
80679;SDS011;70043;51.982;-8.514;2023-05-09T13:17:41;0.22;;;0.13;;
80679;SDS011;70043;51.982;-8.514;2023-05-09T13:20:10;0.30;;;0.20;;
80679;SDS011;70043;51.982;-8.514;2023-05-09T13:22:37;1.92;;;0.30;;
80679;SDS011;70043;51.982;-8.514;2023-05-09T13:25:07;0.05;;;0.05;;
80679;SDS011;70043;51.982;-8.514;2023-05-09T13:27:37;0.30;;;0.30;;
80679;SDS011;70043;51.982;-8.514;2023-05-09T13:30:06;11.32;;;1.10;;
80679;SDS011;70043;51.982;-8.514;2023-05-09T13:32:35;1.60;;;0.47;;
80679;SDS011;70043;51.982;-8.514;2023-05-09T13:35:03;2.10;;;0.38;;
80679;SDS011;70043;51.982;-8.514;2023-05-09T13:37:32;0.63;;;0.20;;
80679;SDS011;70043;51.982;-8.514;2023-05-09T13:40:01;0.38;;;0.10;;
80679;SDS011;70043;51.982;-8.514;2023-05-09T13:42:32;1.25;;;0.30;;
80679;SDS011;70043;51.982;-8.514;2023-05-09T13:45:00;0.40;;;0.20;;
80679;SDS011;70043;51.982;-8.514;2023-05-09T13:47:30;0.60;;;0.30;;
80679;SDS011;70043;51.982;-8.514;2023-05-09T13:49:58;0.47;;;0.20;;
80679;SDS011;70043;51.982;-8.514;2023-05-09T13:52:26;0.95;;;0.17;;
80679;SDS011;70043;51.982;-8.514;2023-05-09T13:54:55;1.27;;;0.45;;
80679;SDS011;70043;51.982;-8.514;2023-05-09T13:57:22;0.88;;;0.35;;
80679;SDS011;70043;51.982;-8.514;2023-05-09T13:59:52;0.55;;;0.30;;
80679;SDS011;70043;51.982;-8.514;2023-05-09T14:02:20;1.30;;;0.43;;
80679;SDS011;70043;51.982;-8.514;2023-05-09T14:04:48;3.50;;;0.50;;
80679;SDS011;70043;51.982;-8.514;2023-05-09T14:07:16;0.93;;;0.40;;
80679;SDS011;70043;51.982;-8.514;2023-05-09T14:09:44;5.22;;;0.52;;
80679;SDS011;70043;51.982;-8.514;2023-05-09T14:12:12;0.40;;;0.40;;
80679;SDS011;70043;51.982;-8.514;2023-05-09T14:14:40;6.18;;;0.57;;
80679;SDS011;70043;51.982;-8.514;2023-05-09T14:17:11;0.43;;;0.28;;
80679;SDS011;70043;51.982;-8.514;2023-05-09T14:19:39;0.73;;;0.32;;
80679;SDS011;70043;51.982;-8.514;2023-05-09T14:22:07;2.13;;;0.55;;
80679;SDS011;70043;51.982;-8.514;2023-05-09T14:24:35;0.80;;;0.30;;
80679;SDS011;70043;51.982;-8.514;2023-05-09T14:27:05;1.35;;;0.45;;
80679;SDS011;70043;51.982;-8.514;2023-05-09T14:29:33;2.45;;;0.55;;
80679;SDS011;70043;51.982;-8.514;2023-05-09T14:32:03;0.65;;;0.20;;
80679;SDS011;70043;51.982;-8.514;2023-05-09T14:34:33;6.05;;;0.57;;
80679;SDS011;70043;51.982;-8.514;2023-05-09T14:37:03;2.92;;;0.60;;
80679;SDS011;70043;51.982;-8.514;2023-05-09T14:39:37;2.58;;;0.70;;
80679;SDS011;70043;51.982;-8.514;2023-05-09T14:42:07;0.47;;;0.20;;
80679;SDS011;70043;51.982;-8.514;2023-05-09T14:44:35;0.40;;;0.30;;
80679;SDS011;70043;51.982;-8.514;2023-05-09T14:47:03;0.77;;;0.38;;
80679;SDS011;70043;51.982;-8.514;2023-05-09T14:49:31;1.23;;;0.40;;
80679;SDS011;70043;51.982;-8.514;2023-05-09T14:52:02;3.70;;;0.70;;